Time;durP1;ratioP1;P1;durP2;ratioP2;P2;SDS_P1;SDS_P2;PMS_P1;PMS_P2;Temp;Humidity;BMP_temperature;BMP_pressure;BME280_temperature;BME280_humidity;BME280_pressure;Samples;Min_cycle;Max_cycle;Signal;HPM_P1;HPM_P2
2023/08/18 00:01:29;;;;;;;34.97;23.02;;;20.40;98.30;;;;;;4965135;28;92628;-78
2023/08/18 00:03:58;;;;;;;35.70;24.05;;;20.40;98.40;;;;;;4948518;28;92543;-77
2023/08/18 00:06:24;;;;;;;37.95;24.98;;;20.30;98.40;;;;;;4965742;28;94003;-77
2023/08/18 00:08:50;;;;;;;36.95;25.52;;;20.30;98.60;;;;;;4967217;28;92927;-77
2023/08/18 00:11:16;;;;;;;29.17;22.67;;;20.30;98.60;;;;;;4965727;28;92544;-78
2023/08/18 00:13:42;;;;;;;36.83;24.15;;;20.30;98.60;;;;;;4947088;28;92365;-78
2023/08/18 00:16:07;;;;;;;48.53;22.52;;;20.20;98.70;;;;;;4963254;28;93845;-77
2023/08/18 00:18:33;;;;;;;34.42;22.40;;;20.20;98.70;;;;;;4962739;28;96497;-77
2023/08/18 00:20:59;;;;;;;35.75;23.40;;;20.20;98.60;;;;;;4948931;28;93557;-77
2023/08/18 00:23:24;;;;;;;34.78;22.80;;;20.30;98.90;;;;;;4964566;28;92855;-77
2023/08/18 00:25:50;;;;;;;37.53;23.80;;;20.20;98.70;;;;;;4967674;28;93535;-77
2023/08/18 00:28:16;;;;;;;32.53;22.88;;;20.20;98.80;;;;;;4947447;28;95324;-77
2023/08/18 00:30:41;;;;;;;36.15;24.52;;;20.20;98.80;;;;;;4965201;28;95892;-77
2023/08/18 00:33:07;;;;;;;33.10;23.55;;;20.10;98.90;;;;;;4964241;28;92846;-78
2023/08/18 00:35:34;;;;;;;35.03;23.17;;;20.10;98.80;;;;;;4964747;28;93559;-78
2023/08/18 00:37:59;;;;;;;32.92;21.65;;;20.00;98.80;;;;;;4965882;28;93114;-77
2023/08/18 00:40:25;;;;;;;31.77;22.13;;;20.10;98.80;;;;;;4963247;28;92618;-77
2023/08/18 00:42:51;;;;;;;34.20;22.90;;;20.00;98.80;;;;;;4964741;28;92824;-77
2023/08/18 00:45:16;;;;;;;36.55;22.55;;;20.00;98.80;;;;;;4964052;28;94565;-77
2023/08/18 00:47:45;;;;;;;33.67;23.73;;;20.00;98.90;;;;;;4965660;28;94948;-77
2023/08/18 00:50:12;;;;;;;33.15;22.85;;;19.90;99.00;;;;;;4965652;28;92625;-77
2023/08/18 00:52:42;;;;;;;37.50;22.85;;;19.90;99.10;;;;;;4964957;28;92497;-77
2023/08/18 00:55:10;;;;;;;40.38;24.80;;;19.90;99.30;;;;;;4964459;28;94296;-77
2023/08/18 00:57:36;;;;;;;43.70;26.75;;;19.80;99.40;;;;;;4947147;28;95077;-78
2023/08/18 01:00:02;;;;;;;40.30;25.55;;;19.80;99.50;;;;;;4966080;28;92559;-77
2023/08/18 01:02:28;;;;;;;44.35;27.33;;;19.70;99.60;;;;;;4965629;28;91786;-77
2023/08/18 01:05:02;;;;;;;41.58;27.35;;;19.70;99.70;;;;;;4963742;28;93241;-77
2023/08/18 01:07:28;;;;;;;38.63;26.30;;;19.70;99.70;;;;;;4965133;28;93704;-77
2023/08/18 01:09:54;;;;;;;45.85;28.95;;;19.80;99.90;;;;;;4945880;28;93652;-77
2023/08/18 01:12:57;;;;;;;43.22;28.50;;;19.70;99.90;;;;;;4964245;28;92764;-78
2023/08/18 01:15:30;;;;;;;51.40;30.38;;;19.70;99.90;;;;;;4938372;28;93642;-78
2023/08/18 01:18:00;;;;;;;47.15;30.65;;;19.70;99.90;;;;;;4962244;28;96906;-78
2023/08/18 01:20:27;;;;;;;48.33;29.45;;;19.70;99.90;;;;;;4964317;28;93079;-77
2023/08/18 01:22:57;;;;;;;48.33;31.45;;;19.70;99.90;;;;;;4961320;28;92648;-77
2023/08/18 01:25:24;;;;;;;46.25;30.85;;;19.70;99.90;;;;;;4963557;28;93845;-78
2023/08/18 01:27:52;;;;;;;46.90;29.83;;;19.70;99.90;;;;;;4945847;28;91864;-77
2023/08/18 01:30:19;;;;;;;45.50;30.13;;;19.70;99.90;;;;;;4946643;28;92868;-77
2023/08/18 01:32:50;;;;;;;51.33;31.33;;;19.70;99.90;;;;;;4947538;28;92749;-78
2023/08/18 01:35:17;;;;;;;48.83;30.70;;;19.70;99.90;;;;;;4943962;28;97392;-77
2023/08/18 01:37:44;;;;;;;49.40;30.25;;;19.70;99.90;;;;;;4944514;28;97505;-77
2023/08/18 01:40:13;;;;;;;55.40;33.53;;;19.70;99.90;;;;;;4963528;28;92734;-77
2023/08/18 01:42:38;;;;;;;53.55;33.38;;;19.70;99.90;;;;;;4964474;28;92880;-77
2023/08/18 01:45:05;;;;;;;51.53;31.77;;;19.60;99.90;;;;;;4965543;28;93772;-77
2023/08/18 01:47:30;;;;;;;50.83;33.00;;;19.60;99.90;;;;;;4944023;28;97355;-77
2023/08/18 01:49:57;;;;;;;49.83;33.05;;;19.60;99.90;;;;;;4963330;28;93121;-77
2023/08/18 01:52:23;;;;;;;50.72;32.25;;;19.60;99.90;;;;;;4963421;28;92248;-77
2023/08/18 01:54:50;;;;;;;58.13;35.35;;;19.60;99.90;;;;;;4964385;28;93630;-77
2023/08/18 01:57:16;;;;;;;49.20;33.05;;;19.70;99.90;;;;;;4947283;28;95981;-77
2023/08/18 01:59:42;;;;;;;53.22;33.83;;;19.60;99.90;;;;;;4964053;28;93768;-77
2023/08/18 02:02:07;;;;;;;51.80;31.80;;;19.60;99.90;;;;;;4963479;28;92521;-77
2023/08/18 02:04:33;;;;;;;48.00;31.92;;;19.60;99.90;;;;;;4964383;28;92857;-77
2023/08/18 02:06:58;;;;;;;49.47;31.88;;;19.60;99.90;;;;;;4954115;28;96606;-77
2023/08/18 02:09:24;;;;;;;59.00;35.05;;;19.70;99.90;;;;;;4963605;28;92666;-77
2023/08/18 02:11:50;;;;;;;55.08;33.42;;;19.70;99.90;;;;;;4966029;28;92887;-77
2023/08/18 02:14:15;;;;;;;54.10;34.10;;;19.60;99.90;;;;;;4962968;28;93743;-78
2023/08/18 02:16:41;;;;;;;53.97;34.55;;;19.60;99.90;;;;;;4964667;28;92491;-78
2023/08/18 02:19:07;;;;;;;57.40;36.97;;;19.60;99.90;;;;;;4964519;28;92856;-77
2023/08/18 02:21:33;;;;;;;53.45;34.67;;;19.60;99.90;;;;;;4963142;28;92688;-78
2023/08/18 02:23:58;;;;;;;64.72;37.53;;;19.60;99.90;;;;;;4963864;28;93625;-78
2023/08/18 02:26:24;;;;;;;60.92;36.35;;;19.60;99.90;;;;;;4965159;28;94090;-77
2023/08/18 02:28:50;;;;;;;65.65;38.17;;;19.60;99.90;;;;;;4963888;28;92898;-77
2023/08/18 02:31:16;;;;;;;59.78;36.65;;;19.50;99.90;;;;;;4963196;28;92750;-77
2023/08/18 02:33:41;;;;;;;59.88;36.10;;;19.60;99.90;;;;;;4962876;28;93872;-77
2023/08/18 02:36:07;;;;;;;62.17;36.95;;;19.60;99.90;;;;;;4964919;28;93181;-77
2023/08/18 02:38:34;;;;;;;57.15;35.97;;;19.60;99.90;;;;;;4955557;28;92745;-77
2023/08/18 02:41:00;;;;;;;61.90;37.47;;;19.60;99.90;;;;;;4962288;28;91851;-77
2023/08/18 02:43:26;;;;;;;64.72;38.35;;;19.60;99.90;;;;;;4962702;28;93619;-77
2023/08/18 02:45:56;;;;;;;68.65;38.55;;;19.50;99.90;;;;;;4963234;28;92546;-78
2023/08/18 02:48:22;;;;;;;66.35;38.13;;;19.60;99.90;;;;;;4961424;28;94289;-78
2023/08/18 02:50:48;;;;;;;63.10;37.55;;;19.60;99.90;;;;;;4966121;28;92861;-77
2023/08/18 02:53:13;;;;;;;63.08;37.15;;;19.60;99.90;;;;;;4944394;28;97092;-76
2023/08/18 02:55:39;;;;;;;63.92;37.40;;;19.50;99.90;;;;;;4963111;28;93216;-77
2023/08/18 02:58:05;;;;;;;67.00;37.10;;;19.60;99.90;;;;;;4944417;28;92914;-77
2023/08/18 03:00:33;;;;;;;71.07;40.35;;;19.60;99.90;;;;;;4964436;28;92734;-77
2023/08/18 03:03:00;;;;;;;72.80;40.42;;;19.60;99.90;;;;;;4964415;28;93738;-77
2023/08/18 03:05:26;;;;;;;73.10;40.28;;;19.50;99.90;;;;;;4945687;28;95245;-77
2023/08/18 03:07:52;;;;;;;67.53;38.97;;;19.60;99.90;;;;;;4963376;28;92565;-78
2023/08/18 03:10:17;;;;;;;73.95;40.83;;;19.60;99.90;;;;;;4948879;28;92401;-77
2023/08/18 03:12:43;;;;;;;78.50;40.55;;;19.50;99.90;;;;;;4963579;28;95816;-77
2023/08/18 03:15:09;;;;;;;77.78;41.15;;;19.50;99.90;;;;;;4965384;28;97285;-77
2023/08/18 03:17:35;;;;;;;77.93;41.20;;;19.50;99.90;;;;;;4967299;28;92787;-77
2023/08/18 03:20:00;;;;;;;78.22;42.38;;;19.50;99.90;;;;;;4948551;28;92362;-77
2023/08/18 03:22:27;;;;;;;84.97;42.25;;;19.50;99.90;;;;;;4947492;28;96797;-77
2023/08/18 03:24:53;;;;;;;85.38;42.20;;;19.50;99.90;;;;;;4965089;28;93790;-77
2023/08/18 03:27:18;;;;;;;76.63;41.25;;;19.50;99.90;;;;;;4967470;28;92810;-77
2023/08/18 03:29:44;;;;;;;80.78;40.58;;;19.50;99.90;;;;;;4966452;28;91786;-77
2023/08/18 03:32:09;;;;;;;81.25;41.85;;;19.50;99.90;;;;;;4965418;28;93703;-77
2023/08/18 03:34:35;;;;;;;83.75;41.75;;;19.50;99.90;;;;;;4966708;28;93034;-77
2023/08/18 03:37:01;;;;;;;73.60;39.05;;;19.50;99.90;;;;;;4968528;28;93568;-77
2023/08/18 03:39:26;;;;;;;78.03;40.25;;;19.50;99.90;;;;;;4947948;28;99011;-77
2023/08/18 03:41:52;;;;;;;87.72;41.65;;;19.50;99.90;;;;;;4965718;28;93395;-77
2023/08/18 03:44:17;;;;;;;74.47;38.50;;;19.50;99.90;;;;;;4964486;28;93367;-77
2023/08/18 03:46:43;;;;;;;84.28;42.53;;;19.50;99.90;;;;;;4964748;28;92999;-77
2023/08/18 03:49:09;;;;;;;90.93;43.78;;;19.50;99.90;;;;;;4967775;28;92685;-77
2023/08/18 03:51:35;;;;;;;86.93;43.92;;;19.50;99.90;;;;;;4966401;28;93824;-77
2023/08/18 03:54:00;;;;;;;82.22;40.78;;;19.50;99.90;;;;;;4953788;28;94940;-77
2023/08/18 03:56:26;;;;;;;84.47;41.80;;;19.50;99.90;;;;;;4966998;28;92549;-77
2023/08/18 03:58:52;;;;;;;87.60;41.40;;;19.50;99.90;;;;;;4963817;28;92996;-77
2023/08/18 04:01:18;;;;;;;97.45;44.65;;;19.50;99.90;;;;;;4955929;28;97897;-77
2023/08/18 04:03:45;;;;;;;96.25;45.08;;;19.50;99.90;;;;;;4946959;28;96011;-77
2023/08/18 04:06:12;;;;;;;99.68;46.70;;;19.50;99.90;;;;;;4966771;28;92589;-77
2023/08/18 04:08:43;;;;;;;102.25;45.22;;;19.40;99.90;;;;;;4965986;28;92498;-78
2023/08/18 04:11:09;;;;;;;101.88;43.92;;;19.40;99.90;;;;;;4965324;28;93691;-77
2023/08/18 04:13:36;;;;;;;90.90;43.58;;;19.40;99.90;;;;;;4965482;28;93433;-78
2023/08/18 04:16:02;;;;;;;97.80;43.85;;;19.40;99.90;;;;;;4965906;28;92689;-77
2023/08/18 04:18:28;;;;;;;99.03;42.75;;;19.40;99.90;;;;;;4964969;28;92109;-77
2023/08/18 04:20:54;;;;;;;84.07;41.08;;;19.40;99.90;;;;;;4965376;28;92655;-78
2023/08/18 04:23:20;;;;;;;102.45;45.25;;;19.40;99.90;;;;;;4964263;28;96222;-78
2023/08/18 04:25:45;;;;;;;99.63;43.97;;;19.40;99.90;;;;;;4962638;28;93876;-77
2023/08/18 04:28:11;;;;;;;91.82;43.17;;;19.30;99.90;;;;;;4966025;28;92760;-77
2023/08/18 04:30:37;;;;;;;90.15;42.65;;;19.30;99.90;;;;;;4965849;28;96180;-77
2023/08/18 04:33:03;;;;;;;91.32;42.90;;;19.30;99.90;;;;;;4967804;28;93155;-77
2023/08/18 04:35:29;;;;;;;97.18;44.17;;;19.30;99.90;;;;;;4963031;28;92852;-77
2023/08/18 04:37:55;;;;;;;104.97;43.60;;;19.30;99.90;;;;;;4947504;28;92824;-77
2023/08/18 04:40:21;;;;;;;98.00;43.85;;;19.30;99.90;;;;;;4946051;28;96770;-78
2023/08/18 04:42:47;;;;;;;91.75;44.83;;;19.30;99.90;;;;;;4948644;28;94934;-78
2023/08/18 04:45:12;;;;;;;99.95;45.05;;;19.30;99.90;;;;;;4948339;28;92459;-77
2023/08/18 04:47:40;;;;;;;93.32;43.75;;;19.30;99.90;;;;;;4949103;28;92908;-77
2023/08/18 04:50:06;;;;;;;98.05;43.58;;;19.30;99.90;;;;;;4948783;28;96417;-77
2023/08/18 04:52:31;;;;;;;88.68;44.10;;;19.30;99.90;;;;;;4965351;28;96157;-77
2023/08/18 04:54:57;;;;;;;84.50;41.08;;;19.30;99.90;;;;;;4947985;28;92583;-76
2023/08/18 04:57:23;;;;;;;90.18;43.47;;;19.30;99.90;;;;;;4946602;28;92787;-77
2023/08/18 04:59:48;;;;;;;91.43;44.13;;;19.30;99.90;;;;;;4967469;28;93523;-77
2023/08/18 05:02:14;;;;;;;86.72;41.60;;;19.30;99.90;;;;;;4957451;28;96616;-77
2023/08/18 05:04:40;;;;;;;90.03;41.75;;;19.30;99.90;;;;;;4947508;28;92702;-77
2023/08/18 05:07:06;;;;;;;79.22;39.42;;;19.30;99.90;;;;;;4964505;28;92026;-77
2023/08/18 05:09:32;;;;;;;89.38;40.47;;;19.30;99.90;;;;;;4948453;28;96695;-77
2023/08/18 05:11:57;;;;;;;82.30;40.50;;;19.30;99.90;;;;;;4965807;28;94013;-77
2023/08/18 05:14:23;;;;;;;83.65;40.42;;;19.30;99.90;;;;;;4946706;28;93992;-78
2023/08/18 05:16:49;;;;;;;85.22;41.70;;;19.30;99.90;;;;;;4946921;28;92474;-77
2023/08/18 05:19:14;;;;;;;91.82;42.33;;;19.30;99.90;;;;;;4969524;28;93695;-76
2023/08/18 05:21:40;;;;;;;86.07;41.92;;;19.30;99.90;;;;;;4964694;28;93928;-77
2023/08/18 05:24:06;;;;;;;95.45;43.40;;;19.30;99.90;;;;;;4966881;28;92642;-76
2023/08/18 05:26:32;;;;;;;90.90;42.70;;;19.30;99.90;;;;;;4966441;28;94670;-77
2023/08/18 05:28:57;;;;;;;93.55;43.05;;;19.30;99.90;;;;;;4966136;28;93621;-77
2023/08/18 05:31:23;;;;;;;96.90;45.78;;;19.30;99.90;;;;;;4965501;28;93488;-77
2023/08/18 05:33:49;;;;;;;101.60;47.17;;;19.30;99.90;;;;;;4965533;28;92738;-77
2023/08/18 05:36:14;;;;;;;107.00;47.83;;;19.30;99.90;;;;;;4965490;28;92658;-77
2023/08/18 05:38:40;;;;;;;103.10;46.83;;;19.30;99.90;;;;;;4965949;28;94445;-77
2023/08/18 05:41:09;;;;;;;97.82;45.97;;;19.30;99.90;;;;;;4945925;28;96958;-78
2023/08/18 05:43:37;;;;;;;98.30;46.47;;;19.30;99.90;;;;;;4964082;28;92844;-78
2023/08/18 05:46:04;;;;;;;107.18;47.70;;;19.30;99.90;;;;;;4944449;28;92770;-78
2023/08/18 05:48:32;;;;;;;103.47;48.65;;;19.30;99.90;;;;;;4964051;28;93138;-79
2023/08/18 05:50:58;;;;;;;104.85;48.50;;;19.30;99.90;;;;;;4945394;28;95540;-79
2023/08/18 05:53:24;;;;;;;87.05;44.05;;;19.20;99.90;;;;;;4945319;28;93084;-79
2023/08/18 05:55:50;;;;;;;80.20;40.08;;;19.30;99.90;;;;;;4947857;28;92139;-78
2023/08/18 05:58:16;;;;;;;92.80;43.03;;;19.30;99.90;;;;;;4962034;28;92868;-78
2023/08/18 06:00:42;;;;;;;85.47;40.75;;;19.30;99.90;;;;;;4965535;28;94096;-78
2023/08/18 06:03:08;;;;;;;83.10;40.38;;;19.30;99.90;;;;;;4945411;28;94187;-78
2023/08/18 06:05:34;;;;;;;89.90;42.28;;;19.30;99.90;;;;;;4947161;28;92802;-79
2023/08/18 06:08:00;;;;;;;95.40;43.83;;;19.30;99.90;;;;;;4947291;28;97399;-78
2023/08/18 06:10:26;;;;;;;89.75;43.45;;;19.30;99.90;;;;;;4961680;28;93022;-89
2023/08/18 06:12:52;;;;;;;87.22;42.08;;;19.30;99.90;;;;;;4964193;28;92645;-89
2023/08/18 06:15:19;;;;;;;84.40;41.10;;;19.30;99.90;;;;;;4966747;28;92666;-87
2023/08/18 06:17:45;;;;;;;88.63;41.78;;;19.30;99.90;;;;;;4947085;28;96463;-89
2023/08/18 06:20:11;;;;;;;87.57;40.58;;;19.40;99.90;;;;;;4954160;28;96441;-88
2023/08/18 06:22:37;;;;;;;87.97;41.15;;;19.40;99.90;;;;;;4963224;28;92776;-88
2023/08/18 06:25:07;;;;;;;96.80;43.45;;;19.40;99.90;;;;;;4946803;28;92597;-88
2023/08/18 06:27:33;;;;;;;91.47;43.88;;;19.30;99.90;;;;;;4970843;28;98650;-87
2023/08/18 06:29:59;;;;;;;91.43;43.28;;;19.40;99.90;;;;;;4947836;28;96774;-83
2023/08/18 06:32:25;;;;;;;96.13;44.33;;;19.40;99.90;;;;;;4946436;28;92884;-87
2023/08/18 06:34:51;;;;;;;101.22;45.53;;;19.40;99.90;;;;;;4945349;28;92523;-88
2023/08/18 06:37:18;;;;;;;95.22;44.60;;;19.40;99.90;;;;;;4957063;28;96178;-88
2023/08/18 06:39:44;;;;;;;98.32;44.80;;;19.40;99.90;;;;;;4971108;28;95113;-89
2023/08/18 06:42:09;;;;;;;102.43;46.25;;;19.40;99.90;;;;;;4945491;28;92789;-82
2023/08/18 06:44:35;;;;;;;107.35;47.10;;;19.40;99.90;;;;;;4946243;28;92271;-89
2023/08/18 06:47:01;;;;;;;108.38;47.22;;;19.40;99.90;;;;;;4953102;28;96055;-89
2023/08/18 06:49:27;;;;;;;113.75;48.33;;;19.40;99.90;;;;;;4947663;28;96222;-89
2023/08/18 06:51:53;;;;;;;103.70;45.90;;;19.50;99.90;;;;;;4946190;28;93600;-86
2023/08/18 06:54:19;;;;;;;110.78;47.75;;;19.50;99.90;;;;;;4946123;28;92483;-86
2023/08/18 06:56:45;;;;;;;110.65;47.47;;;19.50;99.90;;;;;;4947902;28;94429;-89
2023/08/18 06:59:13;;;;;;;110.88;48.17;;;19.50;99.90;;;;;;4943132;28;96805;-82
2023/08/18 07:01:39;;;;;;;115.38;49.72;;;19.50;99.90;;;;;;4960987;28;92923;-83
2023/08/18 07:04:05;;;;;;;124.90;50.97;;;19.50;99.90;;;;;;4943833;28;92712;-83
2023/08/18 07:06:32;;;;;;;112.18;48.58;;;19.60;99.90;;;;;;4945366;28;96178;-84
2023/08/18 07:08:57;;;;;;;125.20;51.92;;;19.70;99.90;;;;;;4964618;28;93601;-83
2023/08/18 07:11:23;;;;;;;121.05;51.42;;;19.70;99.90;;;;;;4962060;28;93031;-84
2023/08/18 07:13:49;;;;;;;128.77;52.10;;;19.80;99.90;;;;;;4961086;28;92860;-83
2023/08/18 07:16:14;;;;;;;113.50;49.15;;;19.80;99.90;;;;;;4954016;28;97433;-87
2023/08/18 07:18:40;;;;;;;119.72;49.42;;;19.90;99.90;;;;;;4944688;28;95882;-83
2023/08/18 07:21:06;;;;;;;111.35;48.28;;;19.90;99.90;;;;;;4947512;28;92820;-81
2023/08/18 07:23:31;;;;;;;114.45;47.55;;;19.90;99.90;;;;;;4945208;28;94497;-80
2023/08/18 07:25:58;;;;;;;101.47;46.13;;;20.00;99.90;;;;;;4961040;28;95172;-79
2023/08/18 07:28:24;;;;;;;112.93;46.85;;;20.00;99.80;;;;;;4961267;28;93688;-80
2023/08/18 07:30:50;;;;;;;103.88;43.22;;;20.10;99.80;;;;;;4954267;28;93269;-80
2023/08/18 07:33:16;;;;;;;112.90;46.78;;;20.10;99.80;;;;;;4963374;28;92064;-80
2023/08/18 07:35:42;;;;;;;108.15;45.00;;;20.10;99.70;;;;;;4944815;28;96198;-79
2023/08/18 07:38:07;;;;;;;104.60;44.13;;;20.10;99.60;;;;;;4943501;28;96139;-80
2023/08/18 07:40:33;;;;;;;105.57;46.60;;;20.20;99.70;;;;;;4960975;28;93499;-80
2023/08/18 07:42:59;;;;;;;108.43;46.17;;;20.30;99.70;;;;;;4963059;28;92268;-79
2023/08/18 07:45:26;;;;;;;102.43;46.38;;;20.30;99.50;;;;;;4956357;28;96375;-80
2023/08/18 07:47:52;;;;;;;99.28;43.50;;;20.30;99.30;;;;;;4964138;28;94032;-80
2023/08/18 07:50:19;;;;;;;108.75;46.58;;;20.40;99.30;;;;;;4946243;28;92447;-80
2023/08/18 07:52:45;;;;;;;110.00;47.55;;;20.50;99.30;;;;;;4944498;28;93126;-80
2023/08/18 07:55:10;;;;;;;106.47;46.28;;;20.50;99.20;;;;;;4965905;28;93351;-79
2023/08/18 07:57:37;;;;;;;110.20;46.20;;;20.60;99.10;;;;;;4967695;28;94392;-80
2023/08/18 08:00:09;;;;;;;115.60;47.92;;;20.60;98.90;;;;;;4965734;28;92545;-80
2023/08/18 08:02:35;;;;;;;103.10;44.80;;;20.70;98.80;;;;;;4964822;28;92770;-80
2023/08/18 08:05:05;;;;;;;103.15;45.13;;;20.70;98.80;;;;;;4965359;28;93717;-80
2023/08/18 08:07:32;;;;;;;104.68;46.67;;;20.80;98.90;;;;;;4947000;28;97290;-80
2023/08/18 08:10:02;;;;;;;112.15;45.88;;;20.80;98.70;;;;;;4949686;28;92872;-79
2023/08/18 08:12:27;;;;;;;108.22;46.63;;;20.90;98.60;;;;;;4969829;28;92494;-80
2023/08/18 08:14:53;;;;;;;105.45;46.10;;;20.90;98.60;;;;;;4968532;28;96162;-80
2023/08/18 08:17:19;;;;;;;99.13;45.03;;;21.10;98.60;;;;;;4961896;28;96480;-79
2023/08/18 08:19:44;;;;;;;115.88;49.85;;;21.20;98.40;;;;;;4947792;28;92736;-80
2023/08/18 08:22:10;;;;;;;107.80;46.70;;;21.20;98.10;;;;;;4965274;28;92063;-79
2023/08/18 08:24:36;;;;;;;96.25;45.58;;;21.30;98.00;;;;;;4963291;28;96678;-80
2023/08/18 08:27:01;;;;;;;101.65;45.05;;;21.40;97.90;;;;;;4949905;28;95142;-80
2023/08/18 08:29:27;;;;;;;91.78;41.90;;;21.50;97.50;;;;;;4963797;28;93764;-80
2023/08/18 08:31:53;;;;;;;94.63;43.97;;;21.50;97.50;;;;;;4964196;28;92247;-79
2023/08/18 08:34:18;;;;;;;101.38;46.40;;;21.60;97.20;;;;;;4948468;28;95133;-80
2023/08/18 08:36:44;;;;;;;99.13;44.88;;;21.60;97.20;;;;;;4962596;28;93900;-80
2023/08/18 08:39:10;;;;;;;105.22;46.53;;;21.70;97.10;;;;;;4965955;28;93139;-80
2023/08/18 08:41:35;;;;;;;102.85;46.22;;;21.80;97.10;;;;;;4966035;28;92960;-79
2023/08/18 08:44:01;;;;;;;96.60;45.97;;;21.90;96.90;;;;;;4964442;28;96304;-80
2023/08/18 08:46:29;;;;;;;100.78;45.00;;;22.00;97.10;;;;;;4952719;28;96276;-79
2023/08/18 08:48:59;;;;;;;98.72;45.42;;;22.00;96.70;;;;;;4954389;28;92245;-79
2023/08/18 08:51:29;;;;;;;83.32;41.22;;;22.10;96.40;;;;;;4962709;28;92436;-79
2023/08/18 08:53:59;;;;;;;84.90;39.60;;;22.20;96.40;;;;;;4952463;28;97331;-80
2023/08/18 08:56:30;;;;;;;93.20;42.35;;;22.30;96.20;;;;;;4952717;28;97036;-79
2023/08/18 08:58:56;;;;;;;88.80;41.55;;;22.40;96.10;;;;;;4951085;28;92747;-79
2023/08/18 09:01:23;;;;;;;91.63;43.55;;;22.40;95.90;;;;;;4947225;28;92684;-80
2023/08/18 09:03:50;;;;;;;89.68;41.40;;;22.50;96.00;;;;;;4937906;28;96847;-81
2023/08/18 09:06:16;;;;;;;92.10;41.53;;;22.50;96.00;;;;;;4943916;28;96745;-83
2023/08/18 09:08:41;;;;;;;87.78;41.55;;;22.60;95.70;;;;;;4967332;28;92585;-82
2023/08/18 09:11:08;;;;;;;74.65;38.35;;;22.70;95.70;;;;;;4947570;28;91783;-84
2023/08/18 09:13:35;;;;;;;96.50;41.60;;;22.80;95.30;;;;;;4946777;28;97265;-82
2023/08/18 09:16:04;;;;;;;87.93;41.88;;;22.90;95.20;;;;;;4965048;28;96459;-83
2023/08/18 09:18:32;;;;;;;88.05;42.75;;;22.90;95.00;;;;;;4965406;28;93778;-81
2023/08/18 09:21:04;;;;;;;87.80;40.83;;;23.00;94.90;;;;;;4950528;28;92800;-80
2023/08/18 09:23:30;;;;;;;80.55;40.47;;;23.10;94.80;;;;;;4970870;28;96829;-81
2023/08/18 09:26:00;;;;;;;92.13;41.72;;;23.10;94.60;;;;;;4964286;28;93476;-79
2023/08/18 09:28:26;;;;;;;94.57;43.08;;;23.20;94.50;;;;;;4962611;28;92898;-84
2023/08/18 09:30:52;;;;;;;90.82;42.88;;;23.30;94.40;;;;;;4965419;28;92817;-83
2023/08/18 09:33:23;;;;;;;85.45;40.22;;;23.30;94.30;;;;;;4947021;28;95514;-84
2023/08/18 09:35:58;;;;;;;85.15;40.88;;;23.40;94.30;;;;;;4949351;28;95907;-83
2023/08/18 09:38:25;;;;;;;78.45;40.17;;;23.40;94.00;;;;;;4955150;28;92462;-84
2023/08/18 09:40:57;;;;;;;77.95;39.08;;;23.50;93.90;;;;;;4949222;28;92341;-84
2023/08/18 09:43:25;;;;;;;86.00;40.30;;;23.60;94.00;;;;;;4945088;28;97350;-84
2023/08/18 09:45:57;;;;;;;78.82;38.78;;;23.70;93.80;;;;;;4945938;28;96321;-83
2023/08/18 09:48:27;;;;;;;80.50;39.97;;;23.80;94.00;;;;;;4948647;28;92490;-84
2023/08/18 09:50:57;;;;;;;73.97;38.08;;;24.00;94.00;;;;;;4958962;28;92774;-84
2023/08/18 09:53:29;;;;;;;74.68;39.42;;;24.10;93.80;;;;;;4963551;28;95382;-86
2023/08/18 09:56:05;;;;;;;81.95;40.80;;;24.30;93.40;;;;;;4964544;28;96675;-84
2023/08/18 09:58:57;;;;;;;77.18;39.05;;;24.50;93.10;;;;;;4964063;28;92908;-84
2023/08/18 10:01:27;;;;;;;74.47;36.90;;;24.60;92.90;;;;;;4956933;28;91552;-84
2023/08/18 10:03:54;;;;;;;74.70;38.95;;;24.60;92.80;;;;;;4970880;28;96812;-85
2023/08/18 10:06:19;;;;;;;79.95;39.38;;;24.80;92.60;;;;;;4963442;28;95412;-85
2023/08/18 10:08:46;;;;;;;78.82;39.72;;;25.00;92.20;;;;;;4947765;28;93357;-84
2023/08/18 10:11:13;;;;;;;77.03;36.83;;;25.10;91.80;;;;;;4947493;28;92620;-85
2023/08/18 10:13:40;;;;;;;75.75;38.08;;;25.20;91.60;;;;;;4946507;28;97338;-84
2023/08/18 10:16:06;;;;;;;73.00;37.05;;;25.40;91.80;;;;;;4946336;28;96235;-83
2023/08/18 10:18:32;;;;;;;75.57;37.83;;;25.50;91.50;;;;;;4947651;28;92150;-84
2023/08/18 10:20:58;;;;;;;77.97;38.83;;;25.70;91.50;;;;;;4946556;28;94313;-84
2023/08/18 10:23:30;;;;;;;70.13;36.35;;;25.90;91.00;;;;;;4947706;28;97054;-84
2023/08/18 10:25:56;;;;;;;68.35;37.78;;;26.00;91.30;;;;;;4971559;28;96279;-84
2023/08/18 10:28:27;;;;;;;72.55;37.90;;;26.20;90.80;;;;;;4947983;28;92657;-84
2023/08/18 10:31:04;;;;;;;55.72;31.80;;;26.40;90.20;;;;;;4950930;28;92662;-85
2023/08/18 10:33:37;;;;;;;71.90;39.47;;;26.60;90.90;;;;;;4948386;28;97448;-84
2023/08/18 10:36:04;;;;;;;;;;;26.80;90.00;;;;;;4949736;28;96252;-83
2023/08/18 10:38:30;;;;;;;74.80;38.03;;;27.10;89.80;;;;;;4955109;28;92732;-83
2023/08/18 10:40:56;;;;;;;72.18;38.90;;;27.30;87.50;;;;;;4946699;28;92682;-82
2023/08/18 10:43:26;;;;;;;65.50;37.15;;;27.40;87.30;;;;;;4945072;28;95653;-83
2023/08/18 10:46:00;;;;;;;71.25;38.53;;;27.50;87.90;;;;;;4946815;28;96501;-83
2023/08/18 10:48:31;;;;;;;63.58;34.85;;;27.70;86.20;;;;;;4945142;28;92489;-82
2023/08/18 10:50:56;;;;;;;76.25;41.13;;;27.80;87.60;;;;;;4962650;28;91567;-83
2023/08/18 10:53:22;;;;;;;67.80;37.72;;;28.00;86.60;;;;;;4947014;28;96584;-83
2023/08/18 10:55:48;;;;;;;74.35;38.15;;;28.20;86.30;;;;;;4964475;28;96340;-83
2023/08/18 10:58:15;;;;;;;71.18;38.65;;;28.40;85.30;;;;;;4945870;28;93694;-82
2023/08/18 11:00:41;;;;;;;66.70;38.58;;;28.60;84.70;;;;;;4946429;28;92679;-82
2023/08/18 11:03:09;;;;;;;71.45;39.25;;;28.90;85.10;;;;;;4945692;28;97039;-82
2023/08/18 11:05:35;;;;;;;73.22;40.40;;;29.10;84.20;;;;;;4963870;28;100207;-81
2023/08/18 11:08:02;;;;;;;74.60;38.10;;;29.30;83.40;;;;;;4947940;28;92551;-80
2023/08/18 11:10:28;;;;;;;65.20;39.22;;;29.50;84.00;;;;;;4948119;28;92437;-83
2023/08/18 11:12:56;;;;;;;69.32;39.33;;;29.70;83.00;;;;;;4945901;28;95332;-82
2023/08/18 11:15:23;;;;;;;62.25;37.13;;;29.90;81.30;;;;;;4947817;28;96533;-82
2023/08/18 11:17:49;;;;;;;63.08;38.15;;;30.10;83.10;;;;;;4945582;28;93074;-82
2023/08/18 11:20:16;;;;;;;53.60;34.10;;;30.30;79.50;;;;;;4945244;28;92312;-83
2023/08/18 11:22:48;;;;;;;63.28;37.50;;;30.40;81.50;;;;;;4945787;28;97117;-81
2023/08/18 11:25:14;;;;;;;54.13;35.38;;;30.50;79.40;;;;;;4945902;28;97234;-79
2023/08/18 11:27:42;;;;;;;48.78;32.63;;;30.60;80.50;;;;;;4946456;28;92634;-83
2023/08/18 11:30:10;;;;;;;47.42;31.15;;;30.80;78.60;;;;;;4966912;28;92673;-81
2023/08/18 11:32:37;;;;;;;45.03;28.80;;;30.90;78.70;;;;;;4949940;28;95949;-83
2023/08/18 11:35:07;;;;;;;39.95;29.27;;;31.00;79.00;;;;;;4973955;28;96475;-83
2023/08/18 11:37:41;;;;;;;42.55;28.50;;;31.20;77.60;;;;;;4949850;28;93190;-85
2023/08/18 11:40:12;;;;;;;31.92;22.75;;;31.40;78.10;;;;;;4969760;28;92174;-83
2023/08/18 11:42:46;;;;;;;34.95;23.35;;;31.60;78.80;;;;;;4951886;28;96337;-88
2023/08/18 11:45:15;;;;;;;38.38;28.08;;;31.90;78.30;;;;;;4950373;28;95228;-86
2023/08/18 11:47:42;;;;;;;39.92;29.67;;;32.00;76.90;;;;;;4968924;28;93677;-87
2023/08/18 11:50:08;;;;;;;30.23;21.95;;;32.00;73.80;;;;;;4950220;28;93043;-86
2023/08/18 11:52:44;;;;;;;35.70;24.45;;;32.10;77.50;;;;;;4948946;28;97888;-86
2023/08/18 11:55:11;;;;;;;29.15;21.88;;;32.40;76.10;;;;;;4973892;28;96480;-84
2023/08/18 11:57:40;;;;;;;35.58;26.05;;;32.70;75.30;;;;;;4954176;28;93057;-86
2023/08/18 12:00:14;;;;;;;31.92;23.50;;;32.90;72.10;;;;;;4948665;28;92800;-80
2023/08/18 12:02:46;;;;;;;29.50;24.30;;;33.00;73.70;;;;;;4949384;28;100718;-81
2023/08/18 12:05:22;;;;;;;29.83;23.40;;;33.20;71.90;;;;;;4966122;28;93553;-80
2023/08/18 12:07:53;;;;;;;40.50;29.60;;;33.40;70.70;;;;;;4964738;28;92717;-80
2023/08/18 12:10:22;;;;;;;29.45;20.67;;;33.40;66.90;;;;;;4963221;28;92665;-80
2023/08/18 12:12:56;;;;;;;26.90;18.67;;;33.60;71.80;;;;;;4949067;28;95714;-80
2023/08/18 12:15:24;;;;;;;25.90;20.20;;;33.80;73.40;;;;;;4963929;28;94971;-80
2023/08/18 12:17:50;;;;;;;28.50;22.52;;;33.90;69.80;;;;;;4964360;28;92588;-81
2023/08/18 12:20:19;;;;;;;23.77;19.23;;;34.10;68.20;;;;;;4948283;28;92749;-80
2023/08/18 12:22:46;;;;;;;19.10;15.52;;;34.20;69.40;;;;;;4966449;28;93855;-80
2023/08/18 12:25:12;;;;;;;22.33;18.27;;;34.40;71.90;;;;;;4964719;28;94049;-80